sensor_id;sensor_type;location;lat;lon;timestamp;P1;durP1;ratioP1;P2;durP2;ratioP2
24631;SDS011;59977;48.782;9.190;2023-04-01T00:00:54;2.78;;;0.70;;
24631;SDS011;59977;48.782;9.190;2023-04-01T00:03:21;5.15;;;1.13;;
24631;SDS011;59977;48.782;9.190;2023-04-01T00:05:47;2.65;;;0.82;;
24631;SDS011;59977;48.782;9.190;2023-04-01T00:08:14;2.90;;;0.85;;
24631;SDS011;59977;48.782;9.190;2023-04-01T00:10:40;5.20;;;1.00;;
24631;SDS011;59977;48.782;9.190;2023-04-01T00:13:05;3.67;;;0.95;;
24631;SDS011;59977;48.782;9.190;2023-04-01T00:15:31;3.03;;;1.00;;
24631;SDS011;59977;48.782;9.190;2023-04-01T00:17:57;1.60;;;0.77;;
24631;SDS011;59977;48.782;9.190;2023-04-01T00:20:23;3.20;;;0.80;;
24631;SDS011;59977;48.782;9.190;2023-04-01T00:22:50;3.05;;;0.90;;
24631;SDS011;59977;48.782;9.190;2023-04-01T00:25:15;1.63;;;0.77;;
24631;SDS011;59977;48.782;9.190;2023-04-01T00:27:41;3.92;;;1.13;;
24631;SDS011;59977;48.782;9.190;2023-04-01T00:30:07;6.40;;;2.10;;
24631;SDS011;59977;48.782;9.190;2023-04-01T00:32:34;3.80;;;1.23;;
24631;SDS011;59977;48.782;9.190;2023-04-01T00:35:00;4.63;;;1.00;;
24631;SDS011;59977;48.782;9.190;2023-04-01T00:37:26;4.68;;;1.13;;
24631;SDS011;59977;48.782;9.190;2023-04-01T00:39:52;5.15;;;1.20;;
24631;SDS011;59977;48.782;9.190;2023-04-01T00:42:18;8.35;;;1.30;;
24631;SDS011;59977;48.782;9.190;2023-04-01T00:44:51;5.47;;;1.40;;
24631;SDS011;59977;48.782;9.190;2023-04-01T00:47:18;4.28;;;1.50;;
24631;SDS011;59977;48.782;9.190;2023-04-01T00:49:45;8.77;;;1.05;;
24631;SDS011;59977;48.782;9.190;2023-04-01T00:52:14;10.25;;;1.60;;
24631;SDS011;59977;48.782;9.190;2023-04-01T00:54:45;10.13;;;1.42;;
24631;SDS011;59977;48.782;9.190;2023-04-01T00:57:13;8.60;;;1.52;;
24631;SDS011;59977;48.782;9.190;2023-04-01T00:59:45;5.40;;;0.90;;
24631;SDS011;59977;48.782;9.190;2023-04-01T01:02:13;8.10;;;1.20;;
24631;SDS011;59977;48.782;9.190;2023-04-01T01:04:40;4.88;;;1.23;;
24631;SDS011;59977;48.782;9.190;2023-04-01T01:12:39;8.65;;;1.50;;
24631;SDS011;59977;48.782;9.190;2023-04-01T01:15:24;7.70;;;1.52;;
24631;SDS011;59977;48.782;9.190;2023-04-01T01:31:37;11.65;;;1.48;;
24631;SDS011;59977;48.782;9.190;2023-04-01T01:37:03;10.25;;;1.60;;
24631;SDS011;59977;48.782;9.190;2023-04-01T01:39:35;8.57;;;1.58;;
24631;SDS011;59977;48.782;9.190;2023-04-01T01:42:03;6.78;;;1.30;;
24631;SDS011;59977;48.782;9.190;2023-04-01T01:44:31;6.35;;;1.13;;
24631;SDS011;59977;48.782;9.190;2023-04-01T01:46:58;5.40;;;0.98;;
24631;SDS011;59977;48.782;9.190;2023-04-01T01:49:25;7.82;;;1.20;;
24631;SDS011;59977;48.782;9.190;2023-04-01T01:51:55;7.18;;;1.10;;
24631;SDS011;59977;48.782;9.190;2023-04-01T01:54:21;6.88;;;1.17;;
24631;SDS011;59977;48.782;9.190;2023-04-01T01:56:48;6.35;;;1.40;;
24631;SDS011;59977;48.782;9.190;2023-04-01T01:59:17;4.82;;;1.00;;
24631;SDS011;59977;48.782;9.190;2023-04-01T02:01:48;5.47;;;1.27;;
24631;SDS011;59977;48.782;9.190;2023-04-01T02:04:15;7.00;;;1.00;;
24631;SDS011;59977;48.782;9.190;2023-04-01T02:06:45;5.47;;;1.05;;
24631;SDS011;59977;48.782;9.190;2023-04-01T02:09:20;3.90;;;1.15;;
24631;SDS011;59977;48.782;9.190;2023-04-01T02:11:47;5.68;;;1.20;;
24631;SDS011;59977;48.782;9.190;2023-04-01T02:14:25;3.30;;;0.90;;
24631;SDS011;59977;48.782;9.190;2023-04-01T02:16:58;5.82;;;1.17;;
24631;SDS011;59977;48.782;9.190;2023-04-01T02:20:10;4.65;;;1.10;;
24631;SDS011;59977;48.782;9.190;2023-04-01T02:22:31;4.88;;;1.35;;
24631;SDS011;59977;48.782;9.190;2023-04-01T02:25:02;6.28;;;1.33;;
24631;SDS011;59977;48.782;9.190;2023-04-01T02:27:31;7.55;;;0.98;;
24631;SDS011;59977;48.782;9.190;2023-04-01T02:29:57;6.03;;;0.70;;
24631;SDS011;59977;48.782;9.190;2023-04-01T02:32:23;2.75;;;0.80;;
24631;SDS011;59977;48.782;9.190;2023-04-01T02:34:50;4.97;;;1.25;;
24631;SDS011;59977;48.782;9.190;2023-04-01T02:37:16;1.90;;;0.80;;
24631;SDS011;59977;48.782;9.190;2023-04-01T02:39:43;4.25;;;0.88;;
24631;SDS011;59977;48.782;9.190;2023-04-01T02:42:08;8.18;;;0.80;;
24631;SDS011;59977;48.782;9.190;2023-04-01T02:44:34;6.22;;;0.80;;
24631;SDS011;59977;48.782;9.190;2023-04-01T02:47:00;3.90;;;0.63;;
24631;SDS011;59977;48.782;9.190;2023-04-01T02:49:26;12.25;;;1.30;;
24631;SDS011;59977;48.782;9.190;2023-04-01T02:51:51;5.32;;;1.10;;
24631;SDS011;59977;48.782;9.190;2023-04-01T02:54:17;5.40;;;0.70;;
24631;SDS011;59977;48.782;9.190;2023-04-01T02:56:43;3.45;;;0.60;;
24631;SDS011;59977;48.782;9.190;2023-04-01T02:59:10;3.75;;;0.80;;
24631;SDS011;59977;48.782;9.190;2023-04-01T03:01:36;6.38;;;1.02;;
24631;SDS011;59977;48.782;9.190;2023-04-01T03:04:01;3.03;;;0.73;;
24631;SDS011;59977;48.782;9.190;2023-04-01T03:06:27;5.57;;;0.63;;
24631;SDS011;59977;48.782;9.190;2023-04-01T03:08:52;9.45;;;0.88;;
24631;SDS011;59977;48.782;9.190;2023-04-01T03:11:18;4.63;;;0.68;;
24631;SDS011;59977;48.782;9.190;2023-04-01T03:13:44;11.40;;;1.00;;
24631;SDS011;59977;48.782;9.190;2023-04-01T03:16:10;1.45;;;0.70;;
24631;SDS011;59977;48.782;9.190;2023-04-01T03:18:36;5.43;;;0.80;;
24631;SDS011;59977;48.782;9.190;2023-04-01T03:21:14;1.73;;;0.38;;
24631;SDS011;59977;48.782;9.190;2023-04-01T03:23:45;4.18;;;0.60;;
24631;SDS011;59977;48.782;9.190;2023-04-01T03:26:11;1.15;;;0.50;;
24631;SDS011;59977;48.782;9.190;2023-04-01T03:28:37;1.85;;;0.55;;
24631;SDS011;59977;48.782;9.190;2023-04-01T03:31:03;1.70;;;0.68;;
24631;SDS011;59977;48.782;9.190;2023-04-01T03:33:28;5.93;;;0.63;;
24631;SDS011;59977;48.782;9.190;2023-04-01T03:35:54;5.28;;;0.70;;
24631;SDS011;59977;48.782;9.190;2023-04-01T03:38:20;4.72;;;0.95;;
24631;SDS011;59977;48.782;9.190;2023-04-01T03:40:46;2.05;;;0.70;;
24631;SDS011;59977;48.782;9.190;2023-04-01T03:43:11;0.95;;;0.50;;
24631;SDS011;59977;48.782;9.190;2023-04-01T03:45:47;2.25;;;0.73;;
24631;SDS011;59977;48.782;9.190;2023-04-01T03:48:14;6.57;;;0.70;;
24631;SDS011;59977;48.782;9.190;2023-04-01T03:50:40;8.30;;;0.70;;
24631;SDS011;59977;48.782;9.190;2023-04-01T03:53:06;3.38;;;0.80;;
24631;SDS011;59977;48.782;9.190;2023-04-01T03:55:31;2.85;;;0.57;;
24631;SDS011;59977;48.782;9.190;2023-04-01T03:57:57;1.88;;;0.70;;
24631;SDS011;59977;48.782;9.190;2023-04-01T04:00:23;5.90;;;0.73;;
24631;SDS011;59977;48.782;9.190;2023-04-01T04:02:48;2.08;;;0.60;;
24631;SDS011;59977;48.782;9.190;2023-04-01T04:05:14;2.08;;;0.70;;
24631;SDS011;59977;48.782;9.190;2023-04-01T04:07:40;1.83;;;0.60;;
24631;SDS011;59977;48.782;9.190;2023-04-01T04:10:05;1.17;;;0.57;;
24631;SDS011;59977;48.782;9.190;2023-04-01T04:12:31;1.73;;;0.60;;
24631;SDS011;59977;48.782;9.190;2023-04-01T04:14:57;2.47;;;0.57;;
24631;SDS011;59977;48.782;9.190;2023-04-01T04:17:23;1.55;;;0.60;;
24631;SDS011;59977;48.782;9.190;2023-04-01T04:19:48;5.63;;;0.80;;
24631;SDS011;59977;48.782;9.190;2023-04-01T04:22:14;3.42;;;0.60;;
24631;SDS011;59977;48.782;9.190;2023-04-01T04:24:40;1.48;;;0.60;;
24631;SDS011;59977;48.782;9.190;2023-04-01T04:27:05;3.70;;;0.80;;
24631;SDS011;59977;48.782;9.190;2023-04-01T04:29:31;2.13;;;0.60;;
24631;SDS011;59977;48.782;9.190;2023-04-01T04:31:56;4.03;;;0.57;;
24631;SDS011;59977;48.782;9.190;2023-04-01T04:34:22;1.25;;;0.43;;
24631;SDS011;59977;48.782;9.190;2023-04-01T04:36:48;1.40;;;0.50;;
24631;SDS011;59977;48.782;9.190;2023-04-01T04:39:15;0.90;;;0.50;;
24631;SDS011;59977;48.782;9.190;2023-04-01T04:41:41;5.40;;;0.70;;
24631;SDS011;59977;48.782;9.190;2023-04-01T04:44:06;3.30;;;0.57;;
24631;SDS011;59977;48.782;9.190;2023-04-01T04:46:32;1.23;;;0.32;;
24631;SDS011;59977;48.782;9.190;2023-04-01T04:48:58;3.70;;;0.55;;
24631;SDS011;59977;48.782;9.190;2023-04-01T04:51:23;2.55;;;0.60;;
24631;SDS011;59977;48.782;9.190;2023-04-01T04:53:49;3.22;;;0.40;;
24631;SDS011;59977;48.782;9.190;2023-04-01T04:56:19;2.65;;;0.57;;
24631;SDS011;59977;48.782;9.190;2023-04-01T04:58:46;1.08;;;0.50;;
24631;SDS011;59977;48.782;9.190;2023-04-01T05:01:13;6.22;;;0.60;;
24631;SDS011;59977;48.782;9.190;2023-04-01T05:03:41;1.65;;;0.40;;
24631;SDS011;59977;48.782;9.190;2023-04-01T05:06:08;2.92;;;0.90;;
24631;SDS011;59977;48.782;9.190;2023-04-01T05:08:35;3.75;;;0.85;;
24631;SDS011;59977;48.782;9.190;2023-04-01T05:11:01;2.58;;;0.57;;
24631;SDS011;59977;48.782;9.190;2023-04-01T05:13:28;2.88;;;0.95;;
24631;SDS011;59977;48.782;9.190;2023-04-01T05:15:54;6.57;;;1.00;;
24631;SDS011;59977;48.782;9.190;2023-04-01T05:18:20;1.50;;;0.57;;
24631;SDS011;59977;48.782;9.190;2023-04-01T05:20:50;3.30;;;0.93;;
24631;SDS011;59977;48.782;9.190;2023-04-01T05:23:17;6.18;;;0.93;;
24631;SDS011;59977;48.782;9.190;2023-04-01T05:25:45;4.75;;;0.88;;
24631;SDS011;59977;48.782;9.190;2023-04-01T05:28:12;10.38;;;1.00;;
24631;SDS011;59977;48.782;9.190;2023-04-01T05:30:39;15.68;;;1.73;;
24631;SDS011;59977;48.782;9.190;2023-04-01T05:33:06;10.82;;;1.33;;
24631;SDS011;59977;48.782;9.190;2023-04-01T05:35:32;7.63;;;1.13;;
24631;SDS011;59977;48.782;9.190;2023-04-01T05:37:58;7.18;;;1.20;;
24631;SDS011;59977;48.782;9.190;2023-04-01T05:40:24;3.20;;;1.10;;
24631;SDS011;59977;48.782;9.190;2023-04-01T05:42:49;7.00;;;1.30;;
24631;SDS011;59977;48.782;9.190;2023-04-01T05:45:15;23.88;;;2.25;;
24631;SDS011;59977;48.782;9.190;2023-04-01T05:47:41;23.17;;;1.40;;
24631;SDS011;59977;48.782;9.190;2023-04-01T05:50:07;19.83;;;1.92;;
24631;SDS011;59977;48.782;9.190;2023-04-01T05:52:35;20.65;;;1.92;;
24631;SDS011;59977;48.782;9.190;2023-04-01T05:55:01;21.70;;;1.90;;
24631;SDS011;59977;48.782;9.190;2023-04-01T05:57:27;13.65;;;2.30;;
24631;SDS011;59977;48.782;9.190;2023-04-01T05:59:52;4.65;;;0.80;;
24631;SDS011;59977;48.782;9.190;2023-04-01T06:02:18;4.53;;;1.05;;
24631;SDS011;59977;48.782;9.190;2023-04-01T06:04:44;8.88;;;1.25;;
24631;SDS011;59977;48.782;9.190;2023-04-01T06:07:10;9.45;;;1.23;;
24631;SDS011;59977;48.782;9.190;2023-04-01T06:09:41;6.30;;;1.42;;
24631;SDS011;59977;48.782;9.190;2023-04-01T06:28:23;5.72;;;1.13;;
24631;SDS011;59977;48.782;9.190;2023-04-01T06:31:03;4.82;;;0.98;;
24631;SDS011;59977;48.782;9.190;2023-04-01T06:42:47;3.88;;;1.17;;
24631;SDS011;59977;48.782;9.190;2023-04-01T06:45:25;7.43;;;1.08;;
24631;SDS011;59977;48.782;9.190;2023-04-01T06:48:08;4.75;;;0.90;;
24631;SDS011;59977;48.782;9.190;2023-04-01T06:56:32;1.75;;;0.63;;
24631;SDS011;59977;48.782;9.190;2023-04-01T06:59:13;3.33;;;0.73;;
24631;SDS011;59977;48.782;9.190;2023-04-01T07:04:16;6.20;;;0.80;;
24631;SDS011;59977;48.782;9.190;2023-04-01T07:09:50;1.15;;;0.57;;
24631;SDS011;59977;48.782;9.190;2023-04-01T07:12:26;4.57;;;0.80;;
24631;SDS011;59977;48.782;9.190;2023-04-01T07:14:53;3.97;;;0.68;;
24631;SDS011;59977;48.782;9.190;2023-04-01T07:17:22;5.43;;;1.23;;
24631;SDS011;59977;48.782;9.190;2023-04-01T07:19:50;2.83;;;0.80;;
24631;SDS011;59977;48.782;9.190;2023-04-01T07:24:54;2.70;;;0.90;;
24631;SDS011;59977;48.782;9.190;2023-04-01T07:27:19;7.25;;;0.90;;
24631;SDS011;59977;48.782;9.190;2023-04-01T07:29:45;12.43;;;1.60;;
24631;SDS011;59977;48.782;9.190;2023-04-01T07:35:31;4.20;;;0.80;;
24631;SDS011;59977;48.782;9.190;2023-04-01T07:55:09;4.97;;;0.75;;
24631;SDS011;59977;48.782;9.190;2023-04-01T07:57:55;3.55;;;0.95;;
24631;SDS011;59977;48.782;9.190;2023-04-01T08:00:33;3.03;;;0.60;;
24631;SDS011;59977;48.782;9.190;2023-04-01T08:21:43;7.47;;;0.88;;
24631;SDS011;59977;48.782;9.190;2023-04-01T08:27:21;4.00;;;0.82;;
24631;SDS011;59977;48.782;9.190;2023-04-01T08:30:17;2.65;;;0.60;;
24631;SDS011;59977;48.782;9.190;2023-04-01T08:33:05;2.13;;;0.80;;
24631;SDS011;59977;48.782;9.190;2023-04-01T08:35:46;5.30;;;0.82;;
24631;SDS011;59977;48.782;9.190;2023-04-01T08:38:24;3.10;;;0.70;;
24631;SDS011;59977;48.782;9.190;2023-04-01T08:43:34;2.63;;;1.08;;
24631;SDS011;59977;48.782;9.190;2023-04-01T08:54:35;5.60;;;0.85;;
24631;SDS011;59977;48.782;9.190;2023-04-01T09:00:21;2.70;;;0.68;;
24631;SDS011;59977;48.782;9.190;2023-04-01T09:02:55;6.65;;;1.10;;
24631;SDS011;59977;48.782;9.190;2023-04-01T09:11:04;2.00;;;0.68;;
24631;SDS011;59977;48.782;9.190;2023-04-01T09:13:48;1.75;;;0.60;;
24631;SDS011;59977;48.782;9.190;2023-04-01T09:16:27;3.10;;;0.93;;
24631;SDS011;59977;48.782;9.190;2023-04-01T09:35:07;1.23;;;0.60;;
24631;SDS011;59977;48.782;9.190;2023-04-01T09:43:57;2.75;;;0.90;;
24631;SDS011;59977;48.782;9.190;2023-04-01T09:55:06;3.95;;;0.70;;
24631;SDS011;59977;48.782;9.190;2023-04-01T10:00:49;1.80;;;0.60;;
24631;SDS011;59977;48.782;9.190;2023-04-01T10:23:45;1.13;;;0.50;;
24631;SDS011;59977;48.782;9.190;2023-04-01T10:40:35;0.30;;;0.30;;
24631;SDS011;59977;48.782;9.190;2023-04-01T11:12:14;0.32;;;0.32;;
24631;SDS011;59977;48.782;9.190;2023-04-01T11:15:13;0.70;;;0.43;;
24631;SDS011;59977;48.782;9.190;2023-04-01T11:23:33;0.30;;;0.30;;
24631;SDS011;59977;48.782;9.190;2023-04-01T11:37:06;1.20;;;0.60;;
24631;SDS011;59977;48.782;9.190;2023-04-01T12:01:39;2.03;;;0.75;;
24631;SDS011;59977;48.782;9.190;2023-04-01T12:07:18;0.57;;;0.52;;
24631;SDS011;59977;48.782;9.190;2023-04-01T12:10:14;0.77;;;0.50;;
24631;SDS011;59977;48.782;9.190;2023-04-01T12:37:36;1.88;;;0.93;;
24631;SDS011;59977;48.782;9.190;2023-04-01T12:45:31;1.75;;;0.73;;
24631;SDS011;59977;48.782;9.190;2023-04-01T12:50:57;0.73;;;0.40;;
24631;SDS011;59977;48.782;9.190;2023-04-01T13:20:40;3.03;;;0.50;;
24631;SDS011;59977;48.782;9.190;2023-04-01T13:25:46;0.20;;;0.20;;
24631;SDS011;59977;48.782;9.190;2023-04-01T13:28:20;0.60;;;0.30;;
24631;SDS011;59977;48.782;9.190;2023-04-01T13:36:10;0.22;;;0.20;;
24631;SDS011;59977;48.782;9.190;2023-04-01T13:38:48;0.30;;;0.20;;
24631;SDS011;59977;48.782;9.190;2023-04-01T13:46:53;1.17;;;0.45;;
24631;SDS011;59977;48.782;9.190;2023-04-01T13:49:48;1.88;;;0.63;;
24631;SDS011;59977;48.782;9.190;2023-04-01T13:52:47;0.60;;;0.40;;
24631;SDS011;59977;48.782;9.190;2023-04-01T14:05:59;0.43;;;0.40;;
24631;SDS011;59977;48.782;9.190;2023-04-01T14:17:03;0.30;;;0.30;;
24631;SDS011;59977;48.782;9.190;2023-04-01T14:22:38;1.85;;;0.40;;
24631;SDS011;59977;48.782;9.190;2023-04-01T14:48:30;0.40;;;0.40;;
24631;SDS011;59977;48.782;9.190;2023-04-01T14:51:09;0.75;;;0.50;;
24631;SDS011;59977;48.782;9.190;2023-04-01T14:53:43;2.38;;;0.50;;
24631;SDS011;59977;48.782;9.190;2023-04-01T14:56:35;0.60;;;0.50;;
24631;SDS011;59977;48.782;9.190;2023-04-01T14:59:14;1.25;;;0.50;;
24631;SDS011;59977;48.782;9.190;2023-04-01T15:01:47;1.88;;;0.47;;
24631;SDS011;59977;48.782;9.190;2023-04-01T15:13:24;1.70;;;0.30;;
24631;SDS011;59977;48.782;9.190;2023-04-01T15:15:49;0.68;;;0.40;;
24631;SDS011;59977;48.782;9.190;2023-04-01T15:21:08;0.60;;;0.50;;
24631;SDS011;59977;48.782;9.190;2023-04-01T15:23:51;1.20;;;0.50;;
24631;SDS011;59977;48.782;9.190;2023-04-01T15:26:33;0.98;;;0.60;;
24631;SDS011;59977;48.782;9.190;2023-04-01T15:29:26;0.50;;;0.50;;
24631;SDS011;59977;48.782;9.190;2023-04-01T15:35:15;0.90;;;0.57;;
24631;SDS011;59977;48.782;9.190;2023-04-01T15:37:46;0.82;;;0.40;;
24631;SDS011;59977;48.782;9.190;2023-04-01T15:40:27;0.43;;;0.40;;
24631;SDS011;59977;48.782;9.190;2023-04-01T15:43:07;0.47;;;0.25;;
24631;SDS011;59977;48.782;9.190;2023-04-01T15:45:45;2.20;;;0.40;;
24631;SDS011;59977;48.782;9.190;2023-04-01T15:48:38;1.38;;;0.45;;
24631;SDS011;59977;48.782;9.190;2023-04-01T15:57:20;2.97;;;1.42;;
24631;SDS011;59977;48.782;9.190;2023-04-01T16:02:34;0.50;;;0.50;;
24631;SDS011;59977;48.782;9.190;2023-04-01T16:05:10;0.63;;;0.45;;
24631;SDS011;59977;48.782;9.190;2023-04-01T16:13:37;1.77;;;0.70;;
24631;SDS011;59977;48.782;9.190;2023-04-01T16:33:39;0.85;;;0.60;;
24631;SDS011;59977;48.782;9.190;2023-04-01T16:39:18;0.77;;;0.50;;
24631;SDS011;59977;48.782;9.190;2023-04-01T16:44:57;1.17;;;0.70;;
24631;SDS011;59977;48.782;9.190;2023-04-01T16:47:31;1.55;;;0.65;;
24631;SDS011;59977;48.782;9.190;2023-04-01T16:50:14;3.78;;;0.80;;
24631;SDS011;59977;48.782;9.190;2023-04-01T16:55:41;1.45;;;0.70;;
24631;SDS011;59977;48.782;9.190;2023-04-01T16:58:07;2.65;;;0.82;;
24631;SDS011;59977;48.782;9.190;2023-04-01T17:00:39;1.17;;;0.63;;
24631;SDS011;59977;48.782;9.190;2023-04-01T17:03:15;2.15;;;0.77;;
24631;SDS011;59977;48.782;9.190;2023-04-01T17:05:56;2.95;;;1.48;;
24631;SDS011;59977;48.782;9.190;2023-04-01T17:11:06;2.45;;;1.00;;
24631;SDS011;59977;48.782;9.190;2023-04-01T17:13:52;1.95;;;1.08;;
24631;SDS011;59977;48.782;9.190;2023-04-01T17:16:51;3.20;;;1.20;;
24631;SDS011;59977;48.782;9.190;2023-04-01T17:22:04;3.55;;;1.50;;
24631;SDS011;59977;48.782;9.190;2023-04-01T17:27:50;4.85;;;2.03;;
24631;SDS011;59977;48.782;9.190;2023-04-01T17:34:03;3.72;;;1.52;;
24631;SDS011;59977;48.782;9.190;2023-04-01T17:39:20;2.58;;;1.40;;
24631;SDS011;59977;48.782;9.190;2023-04-01T17:53:11;7.25;;;2.47;;
24631;SDS011;59977;48.782;9.190;2023-04-01T18:01:17;7.82;;;2.60;;
24631;SDS011;59977;48.782;9.190;2023-04-01T18:06:45;2.80;;;1.20;;
24631;SDS011;59977;48.782;9.190;2023-04-01T18:09:22;4.20;;;1.80;;
24631;SDS011;59977;48.782;9.190;2023-04-01T18:12:15;3.50;;;1.40;;
24631;SDS011;59977;48.782;9.190;2023-04-01T18:17:23;4.93;;;1.15;;
24631;SDS011;59977;48.782;9.190;2023-04-01T18:22:52;4.13;;;1.10;;
24631;SDS011;59977;48.782;9.190;2023-04-01T18:25:35;2.40;;;0.82;;
24631;SDS011;59977;48.782;9.190;2023-04-01T18:30:32;5.85;;;2.22;;
24631;SDS011;59977;48.782;9.190;2023-04-01T18:50:53;10.50;;;2.50;;
24631;SDS011;59977;48.782;9.190;2023-04-01T18:55:54;11.73;;;2.22;;
24631;SDS011;59977;48.782;9.190;2023-04-01T19:01:12;5.20;;;1.75;;
24631;SDS011;59977;48.782;9.190;2023-04-01T19:03:56;14.52;;;1.83;;
24631;SDS011;59977;48.782;9.190;2023-04-01T19:06:50;17.35;;;3.33;;
24631;SDS011;59977;48.782;9.190;2023-04-01T19:09:26;4.45;;;2.22;;
24631;SDS011;59977;48.782;9.190;2023-04-01T19:12:01;7.03;;;2.72;;
24631;SDS011;59977;48.782;9.190;2023-04-01T19:17:51;9.45;;;2.50;;
24631;SDS011;59977;48.782;9.190;2023-04-01T19:20:45;10.00;;;2.40;;
24631;SDS011;59977;48.782;9.190;2023-04-01T19:26:14;6.38;;;2.22;;
24631;SDS011;59977;48.782;9.190;2023-04-01T19:28:56;37.17;;;4.20;;
24631;SDS011;59977;48.782;9.190;2023-04-01T19:36:52;22.67;;;3.88;;
24631;SDS011;59977;48.782;9.190;2023-04-01T19:39:31;10.35;;;2.90;;
24631;SDS011;59977;48.782;9.190;2023-04-01T19:42:12;13.90;;;3.08;;
24631;SDS011;59977;48.782;9.190;2023-04-01T19:50:29;13.18;;;2.20;;
24631;SDS011;59977;48.782;9.190;2023-04-01T19:53:15;52.65;;;5.43;;
24631;SDS011;59977;48.782;9.190;2023-04-01T19:56:15;18.77;;;3.35;;
24631;SDS011;59977;48.782;9.190;2023-04-01T20:01:09;21.92;;;3.83;;
24631;SDS011;59977;48.782;9.190;2023-04-01T20:03:49;10.68;;;3.05;;
24631;SDS011;59977;48.782;9.190;2023-04-01T20:09:34;9.52;;;3.35;;
24631;SDS011;59977;48.782;9.190;2023-04-01T20:12:04;14.05;;;3.13;;
24631;SDS011;59977;48.782;9.190;2023-04-01T20:14:45;31.63;;;3.25;;
24631;SDS011;59977;48.782;9.190;2023-04-01T20:17:24;12.80;;;1.38;;
24631;SDS011;59977;48.782;9.190;2023-04-01T20:25:17;3.25;;;0.70;;
24631;SDS011;59977;48.782;9.190;2023-04-01T20:27:54;17.73;;;1.50;;
24631;SDS011;59977;48.782;9.190;2023-04-01T20:33:41;7.05;;;1.48;;
24631;SDS011;59977;48.782;9.190;2023-04-01T20:38:55;4.68;;;1.10;;
24631;SDS011;59977;48.782;9.190;2023-04-01T20:41:40;4.28;;;1.27;;
24631;SDS011;59977;48.782;9.190;2023-04-01T20:44:14;15.75;;;1.17;;
24631;SDS011;59977;48.782;9.190;2023-04-01T20:50:19;11.38;;;1.40;;
24631;SDS011;59977;48.782;9.190;2023-04-01T20:58:28;3.80;;;1.40;;
24631;SDS011;59977;48.782;9.190;2023-04-01T21:35:41;1.90;;;0.90;;
24631;SDS011;59977;48.782;9.190;2023-04-01T21:38:30;6.35;;;1.40;;
24631;SDS011;59977;48.782;9.190;2023-04-01T21:49:53;7.00;;;1.60;;
24631;SDS011;59977;48.782;9.190;2023-04-01T21:52:44;6.68;;;1.88;;
24631;SDS011;59977;48.782;9.190;2023-04-01T21:58:27;16.75;;;3.05;;
24631;SDS011;59977;48.782;9.190;2023-04-01T22:01:49;9.82;;;2.10;;
24631;SDS011;59977;48.782;9.190;2023-04-01T22:04:47;8.85;;;1.75;;
24631;SDS011;59977;48.782;9.190;2023-04-01T22:07:32;20.58;;;1.88;;
24631;SDS011;59977;48.782;9.190;2023-04-01T22:10:28;6.40;;;1.67;;
24631;SDS011;59977;48.782;9.190;2023-04-01T22:13:01;12.88;;;1.83;;
24631;SDS011;59977;48.782;9.190;2023-04-01T22:15:48;14.93;;;1.70;;
24631;SDS011;59977;48.782;9.190;2023-04-01T22:18:31;8.15;;;1.50;;
24631;SDS011;59977;48.782;9.190;2023-04-01T22:24:00;4.80;;;1.70;;
24631;SDS011;59977;48.782;9.190;2023-04-01T22:26:59;17.85;;;2.35;;
24631;SDS011;59977;48.782;9.190;2023-04-01T22:29:41;6.28;;;1.80;;
24631;SDS011;59977;48.782;9.190;2023-04-01T22:32:28;4.95;;;1.10;;
24631;SDS011;59977;48.782;9.190;2023-04-01T22:38:32;4.15;;;1.27;;
24631;SDS011;59977;48.782;9.190;2023-04-01T22:43:55;6.93;;;1.52;;
24631;SDS011;59977;48.782;9.190;2023-04-01T22:49:25;14.27;;;1.40;;
24631;SDS011;59977;48.782;9.190;2023-04-01T22:54:54;3.25;;;0.95;;
24631;SDS011;59977;48.782;9.190;2023-04-01T23:00:24;6.15;;;1.02;;
24631;SDS011;59977;48.782;9.190;2023-04-01T23:05:34;6.05;;;1.30;;
24631;SDS011;59977;48.782;9.190;2023-04-01T23:10:58;7.13;;;1.52;;
24631;SDS011;59977;48.782;9.190;2023-04-01T23:13:29;11.60;;;1.60;;
24631;SDS011;59977;48.782;9.190;2023-04-01T23:16:02;4.95;;;1.10;;
24631;SDS011;59977;48.782;9.190;2023-04-01T23:18:35;7.22;;;1.40;;
24631;SDS011;59977;48.782;9.190;2023-04-01T23:21:26;12.20;;;1.75;;
24631;SDS011;59977;48.782;9.190;2023-04-01T23:29:29;4.88;;;0.82;;
24631;SDS011;59977;48.782;9.190;2023-04-01T23:31:59;9.73;;;1.13;;
24631;SDS011;59977;48.782;9.190;2023-04-01T23:34:32;3.22;;;0.85;;
24631;SDS011;59977;48.782;9.190;2023-04-01T23:37:12;5.63;;;0.70;;
24631;SDS011;59977;48.782;9.190;2023-04-01T23:39:45;10.93;;;1.23;;
24631;SDS011;59977;48.782;9.190;2023-04-01T23:42:23;1.77;;;0.50;;
24631;SDS011;59977;48.782;9.190;2023-04-01T23:44:57;3.28;;;0.90;;
24631;SDS011;59977;48.782;9.190;2023-04-01T23:50:16;6.35;;;0.93;;
24631;SDS011;59977;48.782;9.190;2023-04-01T23:52:49;4.78;;;1.05;;
24631;SDS011;59977;48.782;9.190;2023-04-01T23:55:24;3.38;;;1.00;;
